Time;durP1;ratioP1;P1;durP2;ratioP2;P2;SDS_P1;SDS_P2;PMS_P1;PMS_P2;Temp;Humidity;BMP_temperature;BMP_pressure;BME280_temperature;BME280_humidity;BME280_pressure;Samples;Min_cycle;Max_cycle;Signal;HPM_P1;HPM_P2
2023/01/29 00:01:57;;;;;;;;;;;;;;;26.93;47.74;97038.26;588632;241;66874;-75
2023/01/29 00:04:25;;;;;;;;;;;;;;;26.92;48.17;97029.34;588593;241;66576;-68
2023/01/29 00:06:52;;;;;;;;;;;;;;;26.91;46.97;97029.67;588567;241;62958;-68
2023/01/29 00:09:20;;;;;;;;;;;;;;;26.91;47.05;97035.06;588589;241;66751;-67
2023/01/29 00:11:47;;;;;;;;;;;;;;;26.90;48.08;97036.97;588572;241;68706;-68
2023/01/29 00:14:16;;;;;;;;;;;;;;;26.88;48.74;97031.09;588606;241;62969;-68
2023/01/29 00:16:44;;;;;;;;;;;;;;;26.88;47.93;97039.17;588639;241;68962;-68
2023/01/29 00:19:11;;;;;;;;;;;;;;;26.88;47.12;97041.88;588547;241;68605;-68
2023/01/29 00:21:39;;;;;;;;;;;;;;;26.87;47.76;97040.27;588592;241;62924;-68
2023/01/29 00:24:06;;;;;;;;;;;;;;;26.86;47.62;97038.68;588580;241;68790;-68
2023/01/29 00:26:34;;;;;;;;;;;;;;;26.86;47.94;97038.68;588569;241;68664;-67
2023/01/29 00:29:01;;;;;;;;;;;;;;;26.85;48.08;97045.19;588629;241;65976;-68
2023/01/29 00:31:29;;;;;;;;;;;;;;;26.85;48.45;97047.88;588608;241;68832;-75
2023/01/29 00:33:57;;;;;;;;;;;;;;;26.83;47.74;97050.09;588541;241;68565;-76
2023/01/29 00:36:25;;;;;;;;;;;;;;;26.82;47.71;97045.81;588601;241;62945;-76
2023/01/29 00:38:57;;;;;;;;;;;;;;;26.82;47.43;97058.47;588595;241;66522;-76
2023/01/29 00:47:00;;;;;;;;;;;;;;;26.80;46.39;97053.40;588590;241;68937;-76
2023/01/29 00:49:29;;;;;;;;;;;;;;;26.79;47.45;97051.79;588549;241;68890;-76
2023/01/29 00:54:43;;;;;;;;;;;;;;;26.77;48.13;97052.11;588555;241;68746;-75
2023/01/29 00:57:11;;;;;;;;;;;;;;;26.76;46.90;97050.53;588568;241;68599;-75
2023/01/29 00:59:39;;;;;;;;;;;;;;;26.75;47.84;97048.92;588639;241;65063;-75
2023/01/29 01:04:51;;;;;;;;;;;;;;;26.74;47.09;97052.73;588598;241;68814;-76
2023/01/29 01:07:19;;;;;;;;;;;;;;;26.73;48.35;97045.73;588558;241;66144;-76
2023/01/29 01:12:32;;;;;;;;;;;;;;;26.71;48.64;97056.05;587218;241;66542;-76
2023/01/29 01:15:00;;;;;;;;;;;;;;;26.70;48.21;97056.34;582503;243;63812;-76
2023/01/29 01:17:27;;;;;;;;;;;;;;;26.70;47.48;97061.73;582452;243;69072;-76
2023/01/29 01:19:55;;;;;;;;;;;;;;;26.69;48.65;97057.45;582441;243;68774;-76
2023/01/29 01:22:22;;;;;;;;;;;;;;;26.68;47.59;97058.54;582467;243;65123;-76
2023/01/29 01:24:50;;;;;;;;;;;;;;;26.67;47.33;97063.14;582459;243;66414;-76
2023/01/29 01:27:18;;;;;;;;;;;;;;;26.66;48.78;97069.65;582497;243;68502;-76
2023/01/29 01:29:46;;;;;;;;;;;;;;;26.67;48.47;97067.73;582454;243;65713;-76
2023/01/29 01:32:14;;;;;;;;;;;;;;;26.66;49.33;97072.34;582453;243;69980;-76
2023/01/29 01:34:48;;;;;;;;;;;;;;;26.64;47.93;97071.05;582436;243;66747;-76
2023/01/29 01:37:13;;;;;;;;;;;;;;;26.64;48.80;97069.15;582406;243;65084;-77
2023/01/29 01:39:40;;;;;;;;;;;;;;;26.63;48.58;97077.53;582446;243;68642;-76
2023/01/29 01:42:12;;;;;;;;;;;;;;;26.63;49.34;97080.22;582478;243;68646;-76
2023/01/29 01:44:59;;;;;;;;;;;;;;;26.61;49.90;97074.36;582437;243;65065;-76
2023/01/29 01:47:28;;;;;;;;;;;;;;;26.59;49.82;97074.66;582448;243;66600;-75
2023/01/29 01:49:57;;;;;;;;;;;;;;;26.59;49.25;97076.56;582347;243;66519;-76
2023/01/29 01:52:25;;;;;;;;;;;;;;;26.59;48.98;97081.95;582390;243;62935;-77
2023/01/29 01:54:52;;;;;;;;;;;;;;;26.57;49.94;97068.77;582456;243;66714;-76
2023/01/29 01:57:23;;;;;;;;;;;;;;;26.55;48.58;97079.88;582520;243;67987;-76
2023/01/29 01:59:52;;;;;;;;;;;;;;;26.54;48.61;97075.56;582472;243;65273;-75
2023/01/29 02:10:45;;;;;;;;;;;;;;;26.51;48.58;97080.78;582428;243;66232;-76
2023/01/29 02:13:19;;;;;;;;;;;;;;;26.51;49.52;97083.48;582445;242;66192;-76
2023/01/29 02:15:49;;;;;;;;;;;;;;;26.49;48.72;97082.94;582427;243;65336;-76
2023/01/29 02:18:16;;;;;;;;;;;;;;;26.47;48.03;97079.78;582347;242;68435;-77
2023/01/29 02:20:46;;;;;;;;;;;;;;;26.48;51.90;97078.67;582439;243;68940;-76
2023/01/29 02:23:22;;;;;;;;;;;;;;;26.47;50.53;97085.17;582456;243;63683;-76
2023/01/29 02:26:06;;;;;;;;;;;;;;;26.45;48.16;97085.47;582452;243;66495;-77
2023/01/29 02:28:52;;;;;;;;;;;;;;;26.45;48.52;97087.37;582400;243;68557;-76
2023/01/29 02:31:33;;;;;;;;;;;;;;;26.44;48.99;97085.78;582449;243;65158;-76
2023/01/29 02:34:20;;;;;;;;;;;;;;;26.43;50.48;97086.87;582546;243;52987;-76
2023/01/29 02:36:52;;;;;;;;;;;;;;;26.42;48.56;97079.89;582423;243;66627;-76
2023/01/29 02:39:21;;;;;;;;;;;;;;;26.41;49.66;97083.67;582380;243;65174;-77
2023/01/29 02:41:54;;;;;;;;;;;;;;;26.40;48.55;97090.17;582452;243;66762;-77
2023/01/29 02:44:23;;;;;;;;;;;;;;;26.38;48.75;97085.08;582292;243;68522;-77
2023/01/29 02:46:52;;;;;;;;;;;;;;;26.38;48.03;97087.77;581626;243;64903;-77
2023/01/29 02:49:24;;;;;;;;;;;;;;;26.37;49.84;97083.49;582443;243;66519;-77
2023/01/29 02:52:00;;;;;;;;;;;;;;;26.38;49.31;97086.98;582372;243;68525;-77
2023/01/29 02:54:44;;;;;;;;;;;;;;;26.37;49.36;97091.58;582453;243;62791;-76
2023/01/29 02:57:16;;;;;;;;;;;;;;;26.36;48.65;97084.61;582420;243;66691;-76
2023/01/29 02:59:45;;;;;;;;;;;;;;;26.34;49.38;97084.89;582292;243;66435;-76
2023/01/29 03:02:15;;;;;;;;;;;;;;;26.34;49.37;97089.50;582441;243;62684;-76
2023/01/29 03:04:45;;;;;;;;;;;;;;;26.32;50.32;97083.61;582314;243;69526;-76
2023/01/29 03:07:40;;;;;;;;;;;;;;;26.31;49.25;97088.20;582283;243;66279;-76
2023/01/29 03:09:47;;;;;;;;;;;;;;;26.31;49.38;97093.59;581593;243;62800;-76
2023/01/29 03:12:27;;;;;;;;;;;;;;;26.31;49.69;97092.80;583016;241;68689;-76
2023/01/29 03:17:37;;;;;;;;;;;;;;;26.28;49.36;97088.81;588605;241;63911;-76
2023/01/29 03:20:06;;;;;;;;;;;;;;;26.28;50.23;97093.41;588615;241;74304;-76
2023/01/29 03:22:35;;;;;;;;;;;;;;;26.28;51.38;97098.80;588555;241;68989;-68
2023/01/29 03:33:31;;;;;;;;;;;;;;;26.22;49.64;97100.81;588563;241;44827;-68
2023/01/29 03:36:01;;;;;;;;;;;;;;;26.20;50.05;97105.70;588587;241;65946;-68
2023/01/29 03:38:30;;;;;;;;;;;;;;;26.20;50.74;97104.91;588580;241;68565;-68
2023/01/29 03:40:59;;;;;;;;;;;;;;;26.19;49.76;97105.98;588648;241;62796;-68
2023/01/29 03:43:45;;;;;;;;;;;;;;;26.18;49.85;97107.09;588492;239;68455;-68
2023/01/29 03:46:28;;;;;;;;;;;;;;;26.17;51.18;97106.30;588578;241;69147;-67
2023/01/29 03:48:57;;;;;;;;;;;;;;;26.18;50.99;97110.58;588509;239;65155;-68
2023/01/29 03:51:26;;;;;;;;;;;;;;;26.15;48.81;97110.39;588261;241;68886;-68
2023/01/29 03:54:05;;;;;;;;;;;;;;;26.14;50.13;97109.61;588453;241;68977;-77
2023/01/29 03:56:44;;;;;;;;;;;;;;;26.13;50.19;97106.09;587252;241;65248;-76
2023/01/29 03:59:16;;;;;;;;;;;;;;;26.12;50.86;97106.41;588642;241;66239;-76
2023/01/29 04:01:48;;;;;;;;;;;;;;;26.11;49.64;97104.83;585518;241;50781;-76
2023/01/29 04:04:20;;;;;;;;;;;;;;;26.10;50.25;97109.39;588220;241;63495;-76
2023/01/29 04:06:49;;;;;;;;;;;;;;;26.09;50.22;97107.80;588519;241;65877;-76
2023/01/29 04:09:23;;;;;;;;;;;;;;;26.09;48.77;97104.33;588560;241;68480;-77
2023/01/29 04:11:49;;;;;;;;;;;;;;;26.09;49.84;97107.02;588505;239;62710;-76
2023/01/29 04:14:17;;;;;;;;;;;;;;;26.08;51.22;97113.48;588538;241;66526;-67
2023/01/29 04:16:46;;;;;;;;;;;;;;;26.06;49.35;97108.41;588565;241;68857;-68
2023/01/29 04:19:16;;;;;;;;;;;;;;;26.06;49.04;97107.63;588485;241;42383;-67
2023/01/29 04:21:45;;;;;;;;;;;;;;;26.06;49.67;97107.63;588567;241;66766;-67
2023/01/29 04:24:13;;;;;;;;;;;;;;;26.05;49.96;97111.39;588590;241;68882;-68
2023/01/29 04:26:42;;;;;;;;;;;;;;;26.03;49.87;97117.09;588602;241;65431;-68
2023/01/29 04:29:15;;;;;;;;;;;;;;;26.03;50.60;97119.00;588155;241;68987;-68
2023/01/29 04:31:45;;;;;;;;;;;;;;;26.03;50.55;97117.09;578589;241;68917;-68
2023/01/29 04:34:15;;;;;;;;;;;;;;;26.01;49.69;97119.29;588464;241;62947;-68
2023/01/29 04:36:47;;;;;;;;;;;;;;;26.01;50.69;97121.19;588567;241;66506;-67
2023/01/29 04:39:16;;;;;;;;;;;;;;;26.00;49.33;97116.88;588627;241;68848;-68
2023/01/29 04:41:45;;;;;;;;;;;;;;;25.99;50.84;97115.30;588572;241;65247;-77
2023/01/29 04:44:17;;;;;;;;;;;;;;;25.99;50.03;97120.69;588360;241;69706;-76
2023/01/29 04:47:02;;;;;;;;;;;;;;;25.98;49.86;97119.10;588570;241;69309;-76
2023/01/29 04:49:40;;;;;;;;;;;;;;;25.97;49.46;97126.36;588586;241;62786;-76
2023/01/29 04:52:09;;;;;;;;;;;;;;;25.95;50.46;97123.19;588508;239;66438;-76
2023/01/29 04:54:53;;;;;;;;;;;;;;;25.95;51.07;97122.41;588515;241;66774;-76
2023/01/29 04:57:28;;;;;;;;;;;;;;;25.94;50.41;97120.79;588489;241;65323;-76
2023/01/29 04:59:57;;;;;;;;;;;;;;;25.93;49.98;97129.97;588527;241;74003;-76
2023/01/29 05:02:27;;;;;;;;;;;;;;;25.91;50.64;97122.97;583700;241;66706;-76
2023/01/29 05:04:56;;;;;;;;;;;;;;;25.91;50.58;97136.44;588535;241;63200;-68
2023/01/29 05:07:24;;;;;;;;;;;;;;;25.90;50.05;97142.93;588568;241;66958;-68
2023/01/29 05:09:51;;;;;;;;;;;;;;;25.89;48.81;97138.66;588591;241;66756;-76
2023/01/29 05:12:19;;;;;;;;;;;;;;;25.88;50.56;97142.42;588565;241;63050;-68
2023/01/29 05:14:47;;;;;;;;;;;;;;;25.87;50.83;97143.53;588603;241;66690;-68
2023/01/29 05:17:16;;;;;;;;;;;;;;;25.87;49.43;97151.61;588559;241;68743;-77
2023/01/29 05:19:44;;;;;;;;;;;;;;;25.87;49.51;97146.23;588583;241;65245;-76
2023/01/29 05:22:13;;;;;;;;;;;;;;;25.84;50.15;97144.14;588595;241;68813;-76
2023/01/29 05:24:41;;;;;;;;;;;;;;;25.84;50.14;97154.11;588620;241;66696;-76
2023/01/29 05:29:56;;;;;;;;;;;;;;;25.83;48.88;97150.59;588562;241;66707;-76
2023/01/29 05:32:24;;;;;;;;;;;;;;;25.82;49.52;97161.66;588594;241;68838;-77
2023/01/29 05:34:51;;;;;;;;;;;;;;;25.81;49.20;97157.34;588560;241;65257;-77
2023/01/29 05:37:19;;;;;;;;;;;;;;;25.80;48.94;97159.25;588592;241;66780;-76
2023/01/29 05:39:46;;;;;;;;;;;;;;;25.79;50.32;97163.05;588623;241;66603;-77
2023/01/29 05:42:14;;;;;;;;;;;;;;;25.79;50.24;97167.64;588525;241;62922;-68
2023/01/29 05:44:41;;;;;;;;;;;;;;;25.78;50.82;97168.71;588588;241;66606;-68
2023/01/29 05:47:09;;;;;;;;;;;;;;;25.77;49.42;97169.82;588589;241;66426;-68
2023/01/29 05:49:36;;;;;;;;;;;;;;;25.77;50.96;97175.20;588575;241;63682;-68
2023/01/29 05:52:03;;;;;;;;;;;;;;;25.76;49.54;97176.31;588634;241;69020;-68
2023/01/29 05:54:31;;;;;;;;;;;;;;;25.74;48.91;97173.91;588534;241;69037;-77
2023/01/29 05:56:58;;;;;;;;;;;;;;;25.73;50.10;97180.39;588572;241;65059;-76
2023/01/29 05:59:26;;;;;;;;;;;;;;;25.72;50.76;97178.78;588581;241;68773;-76
2023/01/29 06:01:53;;;;;;;;;;;;;;;25.72;50.61;97183.38;588588;241;68549;-77
2023/01/29 06:04:21;;;;;;;;;;;;;;;25.71;51.12;97189.86;588631;241;65013;-76
2023/01/29 06:06:48;;;;;;;;;;;;;;;25.71;49.46;97197.94;588549;241;68868;-76
2023/01/29 06:09:16;;;;;;;;;;;;;;;25.69;50.54;97193.63;588569;241;68330;-76
2023/01/29 06:11:43;;;;;;;;;;;;;;;25.69;49.18;97195.53;588604;241;63154;-76
2023/01/29 06:14:11;;;;;;;;;;;;;;;25.67;49.29;97198.53;588576;241;66139;-76
2023/01/29 06:16:38;;;;;;;;;;;;;;;25.67;49.88;97205.79;588653;241;66426;-76
2023/01/29 06:19:06;;;;;;;;;;;;;;;25.65;49.50;97200.72;588610;241;62924;-76
2023/01/29 06:21:33;;;;;;;;;;;;;;;25.65;50.38;97199.92;588599;241;66632;-77
2023/01/29 06:24:00;;;;;;;;;;;;;;;25.64;50.41;97209.08;588566;241;68612;-76
2023/01/29 06:26:28;;;;;;;;;;;;;;;25.64;49.84;97211.77;588587;241;65070;-76
2023/01/29 06:28:55;;;;;;;;;;;;;;;25.63;51.23;97208.28;588556;239;68530;-76
2023/01/29 06:31:23;;;;;;;;;;;;;;;25.63;50.71;97220.95;588616;241;68487;-76
2023/01/29 06:33:50;;;;;;;;;;;;;;;25.61;50.09;97221.23;588606;241;63640;-76
2023/01/29 06:36:18;;;;;;;;;;;;;;;25.60;49.31;97216.16;588608;241;68650;-76
2023/01/29 06:38:46;;;;;;;;;;;;;;;25.60;49.30;97213.47;588587;241;68536;-76
2023/01/29 06:41:15;;;;;;;;;;;;;;;25.59;49.71;97226.13;588580;241;63676;-76
2023/01/29 06:43:46;;;;;;;;;;;;;;;25.58;49.40;97223.72;588634;241;68719;-76
2023/01/29 06:46:14;;;;;;;;;;;;;;;25.57;50.52;97225.63;588564;241;68795;-76
2023/01/29 06:48:42;;;;;;;;;;;;;;;25.56;49.34;97225.91;588608;241;65099;-76
2023/01/29 06:51:10;;;;;;;;;;;;;;;25.56;50.67;97233.98;588574;241;68713;-76
2023/01/29 06:53:38;;;;;;;;;;;;;;;25.56;50.03;97228.59;588573;241;68731;-76
2023/01/29 06:56:06;;;;;;;;;;;;;;;25.54;50.18;97230.80;588663;241;64829;-76
2023/01/29 06:58:35;;;;;;;;;;;;;;;25.53;49.68;97229.98;588603;241;68731;-68
2023/01/29 07:01:03;;;;;;;;;;;;;;;25.51;49.40;97231.37;588547;241;68294;-76
2023/01/29 07:03:31;;;;;;;;;;;;;;;25.50;49.26;97241.34;588576;241;62784;-76
2023/01/29 07:05:59;;;;;;;;;;;;;;;25.50;49.01;97240.55;588576;241;68766;-76
2023/01/29 07:08:27;;;;;;;;;;;;;;;25.50;49.13;97245.92;588573;241;68823;-76
2023/01/29 07:10:56;;;;;;;;;;;;;;;25.50;51.77;97248.62;588626;241;62775;-75
2023/01/29 07:13:24;;;;;;;;;;;;;;;25.47;50.66;97250.80;587825;241;66420;-75
2023/01/29 07:15:51;;;;;;;;;;;;;;;25.46;51.01;97253.80;588582;241;66594;-75
2023/01/29 07:18:19;;;;;;;;;;;;;;;25.46;50.46;97251.91;588598;241;62739;-75
2023/01/29 07:20:46;;;;;;;;;;;;;;;25.46;49.84;97259.18;588615;241;66782;-75
2023/01/29 07:23:14;;;;;;;;;;;;;;;25.45;50.46;97260.25;588652;241;66537;-75
2023/01/29 07:25:42;;;;;;;;;;;;;;;25.45;49.61;97269.15;588624;241;63000;-75
2023/01/29 07:28:10;;;;;;;;;;;;;;;25.44;50.64;97266.73;579239;241;66206;-75
2023/01/29 07:30:37;;;;;;;;;;;;;;;25.43;49.97;97263.25;588596;241;66311;-76
2023/01/29 07:33:07;;;;;;;;;;;;;;;25.42;50.10;97267.02;588587;241;62962;-76
2023/01/29 07:35:38;;;;;;;;;;;;;;;25.43;51.95;97257.87;588642;241;68827;-76
2023/01/29 07:38:06;;;;;;;;;;;;;;;25.42;51.03;97264.33;588605;241;68743;-75
2023/01/29 07:40:34;;;;;;;;;;;;;;;25.42;50.38;97274.30;588606;241;65155;-67
2023/01/29 07:43:03;;;;;;;;;;;;;;;25.41;50.88;97270.81;588574;241;68474;-67
2023/01/29 07:45:31;;;;;;;;;;;;;;;25.41;51.36;97270.02;588566;241;66464;-67
2023/01/29 07:47:58;;;;;;;;;;;;;;;25.40;49.21;97271.92;588641;241;65075;-67
2023/01/29 07:50:26;;;;;;;;;;;;;;;25.41;49.80;97278.09;588625;241;68438;-67
2023/01/29 07:52:54;;;;;;;;;;;;;;;25.41;50.13;97276.19;588612;241;68641;-67
2023/01/29 07:55:21;;;;;;;;;;;;;;;25.40;51.11;97279.16;588609;241;65104;-67
2023/01/29 07:57:50;;;;;;;;;;;;;;;25.40;49.61;97276.47;588586;241;68442;-67
2023/01/29 08:00:18;;;;;;;;;;;;;;;25.41;49.85;97288.85;588424;241;66468;-67
2023/01/29 08:02:45;;;;;;;;;;;;;;;25.41;50.38;97283.47;588627;241;65172;-67
2023/01/29 08:05:13;;;;;;;;;;;;;;;25.41;50.38;97288.85;588578;241;68609;-67
2023/01/29 08:07:40;;;;;;;;;;;;;;;25.41;49.91;97286.95;588569;241;66138;-69
2023/01/29 08:10:08;;;;;;;;;;;;;;;25.40;51.60;97285.37;588557;241;65027;-67
2023/01/29 08:12:36;;;;;;;;;;;;;;;25.41;51.24;97291.55;586538;241;68583;-66
2023/01/29 08:15:03;;;;;;;;;;;;;;;25.40;49.46;97296.13;582537;243;68183;-66
2023/01/29 08:17:31;;;;;;;;;;;;;;;25.42;51.43;97301.20;582488;243;65221;-67
2023/01/29 08:19:58;;;;;;;;;;;;;;;25.42;50.87;97307.38;582480;243;68564;-67
2023/01/29 08:22:26;;;;;;;;;;;;;;;25.41;49.92;97308.48;582465;243;66663;-67
2023/01/29 08:24:53;;;;;;;;;;;;;;;25.41;51.32;97308.48;582441;243;63835;-67
2023/01/29 08:27:21;;;;;;;;;;;;;;;25.41;51.10;97308.48;582526;243;68523;-67
2023/01/29 08:29:48;;;;;;;;;;;;;;;25.42;50.34;97307.38;582480;243;66361;-67
2023/01/29 08:32:16;;;;;;;;;;;;;;;25.43;50.57;97305.52;582413;243;65017;-66
2023/01/29 08:34:43;;;;;;;;;;;;;;;25.43;50.99;97314.38;582433;243;68488;-67
2023/01/29 08:37:11;;;;;;;;;;;;;;;25.45;51.89;97308.69;582424;241;68546;-67
2023/01/29 08:39:38;;;;;;;;;;;;;;;25.44;51.27;97305.20;582528;243;65032;-67
2023/01/29 08:42:06;;;;;;;;;;;;;;;25.45;51.46;97314.89;582326;243;68433;-67
2023/01/29 08:44:33;;;;;;;;;;;;;;;25.46;51.24;97315.69;582437;243;68487;-67
2023/01/29 08:47:01;;;;;;;;;;;;;;;25.46;50.83;97311.09;582325;243;65047;-67
2023/01/29 08:49:30;;;;;;;;;;;;;;;25.48;50.60;97316.16;582481;243;68930;-66
2023/01/29 08:51:57;;;;;;;;;;;;;;;25.50;50.86;97321.27;582465;243;68521;-67
2023/01/29 08:54:24;;;;;;;;;;;;;;;25.50;49.41;97322.06;582537;243;62993;-74
2023/01/29 08:56:52;;;;;;;;;;;;;;;25.52;50.96;97319.09;582452;243;68642;-74
2023/01/29 08:59:21;;;;;;;;;;;;;;;25.53;50.69;97326.06;582123;243;68478;-74
2023/01/29 09:01:49;;;;;;;;;;;;;;;25.54;51.57;97317.71;581958;243;65088;-74
2023/01/29 09:04:16;;;;;;;;;;;;;;;25.55;51.80;97323.89;582039;243;66169;-74
2023/01/29 09:06:44;;;;;;;;;;;;;;;25.56;51.44;97325.47;581991;243;66386;-74
2023/01/29 09:09:11;;;;;;;;;;;;;;;25.56;50.35;97320.88;582010;243;65069;-74
2023/01/29 09:11:39;;;;;;;;;;;;;;;25.58;49.89;97320.61;581905;243;68536;-73
2023/01/29 09:14:08;;;;;;;;;;;;;;;25.59;52.29;97323.02;582039;242;67020;-73
2023/01/29 09:16:36;;;;;;;;;;;;;;;25.61;51.54;97320.02;582066;243;64969;-74
2023/01/29 09:19:03;;;;;;;;;;;;;;;25.61;51.53;97318.12;582437;243;68492;-74
2023/01/29 09:21:31;;;;;;;;;;;;;;;25.63;50.55;97320.53;582429;243;68537;-73
2023/01/29 09:23:58;;;;;;;;;;;;;;;25.65;49.89;97321.04;582456;243;65143;-74
2023/01/29 09:26:26;;;;;;;;;;;;;;;25.66;49.95;97319.94;582446;243;68506;-74
2023/01/29 09:28:53;;;;;;;;;;;;;;;25.68;49.66;97315.86;582484;243;66221;-73
2023/01/29 09:31:21;;;;;;;;;;;;;;;25.69;49.78;97312.06;582450;243;65038;-74
2023/01/29 09:33:48;;;;;;;;;;;;;;;25.72;50.62;97312.58;582474;243;68493;-74
2023/01/29 09:36:15;;;;;;;;;;;;;;;25.71;49.55;97311.78;582351;243;68848;-74
2023/01/29 09:38:45;;;;;;;;;;;;;;;25.74;48.60;97311.19;582472;243;64960;-73
2023/01/29 09:41:17;;;;;;;;;;;;;;;25.75;48.11;97315.47;582438;241;68355;-74
2023/01/29 09:43:56;;;;;;;;;;;;;;;25.77;49.33;97315.98;582111;243;68478;-74
2023/01/29 09:46:28;;;;;;;;;;;;;;;25.78;49.19;97309.52;582192;243;62775;-74
2023/01/29 09:49:00;;;;;;;;;;;;;;;25.79;50.10;97305.72;582219;243;68513;-75
2023/01/29 09:51:29;;;;;;;;;;;;;;;25.80;48.60;97304.62;582237;243;68639;-74
2023/01/29 09:54:10;;;;;;;;;;;;;;;25.82;49.08;97302.44;582114;243;63026;-75
2023/01/29 09:56:38;;;;;;;;;;;;;;;25.83;47.61;97298.67;582279;243;68133;-76
2023/01/29 09:59:05;;;;;;;;;;;;;;;25.83;48.53;97301.36;582489;243;68427;-76
2023/01/29 10:01:40;;;;;;;;;;;;;;;25.84;48.36;97302.98;582467;243;65048;-76
2023/01/29 10:04:10;;;;;;;;;;;;;;;25.86;48.65;97300.80;582496;243;68714;-75
2023/01/29 10:06:55;;;;;;;;;;;;;;;25.88;49.08;97297.80;582462;243;68371;-75
2023/01/29 10:09:41;;;;;;;;;;;;;;;25.88;48.84;97295.89;582450;243;65261;-74
2023/01/29 10:12:26;;;;;;;;;;;;;;;25.92;49.13;97296.13;582736;241;66190;-68
2023/01/29 10:14:58;;;;;;;;;;;;;;;25.93;49.40;97296.91;588595;241;68459;-68
2023/01/29 10:17:43;;;;;;;;;;;;;;;25.94;47.43;97287.73;588454;241;65196;-68
2023/01/29 10:20:15;;;;;;;;;;;;;;;25.94;49.58;97287.73;588677;241;65993;-68
2023/01/29 10:22:45;;;;;;;;;;;;;;;25.95;48.31;97289.34;588663;241;68032;-68
2023/01/29 10:25:17;;;;;;;;;;;;;;;25.96;49.38;97290.94;588593;241;65141;-68
2023/01/29 10:27:46;;;;;;;;;;;;;;;25.98;49.06;97283.36;588560;241;68205;-68
2023/01/29 10:30:27;;;;;;;;;;;;;;;25.99;48.02;97279.56;588326;241;65998;-68
2023/01/29 10:33:02;;;;;;;;;;;;;;;26.01;48.34;97274.69;588676;239;46785;-68
2023/01/29 10:35:33;;;;;;;;;;;;;;;26.02;48.32;97270.89;588341;241;68132;-68
2023/01/29 10:38:01;;;;;;;;;;;;;;;26.03;48.94;97281.38;588622;241;67982;-68
2023/01/29 10:40:30;;;;;;;;;;;;;;;26.04;47.02;97266.01;588365;241;65187;-68
2023/01/29 10:42:59;;;;;;;;;;;;;;;26.06;48.77;97271.91;588257;241;68170;-68
2023/01/29 10:45:28;;;;;;;;;;;;;;;26.07;48.20;97268.10;588560;239;68107;-68
2023/01/29 10:47:59;;;;;;;;;;;;;;;26.07;47.77;97260.02;588539;239;62627;-68
2023/01/29 10:50:34;;;;;;;;;;;;;;;26.09;47.79;97263.22;588634;241;68357;-68
2023/01/29 10:53:03;;;;;;;;;;;;;;;26.09;48.42;97261.33;588567;241;68571;-68
2023/01/29 10:55:32;;;;;;;;;;;;;;;26.10;48.64;97257.52;588579;241;62796;-68
2023/01/29 10:58:02;;;;;;;;;;;;;;;26.11;48.42;97252.95;588601;241;68397;-68
2023/01/29 11:00:37;;;;;;;;;;;;;;;26.12;48.98;97252.64;588552;241;68292;-68
2023/01/29 11:03:18;;;;;;;;;;;;;;;26.12;48.34;97251.84;588250;241;62857;-68
2023/01/29 11:05:53;;;;;;;;;;;;;;;26.12;49.31;97252.64;588611;241;68411;-68
2023/01/29 11:08:28;;;;;;;;;;;;;;;26.13;46.73;97248.84;588494;239;68362;-68
2023/01/29 11:11:00;;;;;;;;;;;;;;;26.15;48.03;97253.94;588451;241;62847;-68
2023/01/29 11:13:29;;;;;;;;;;;;;;;26.15;47.06;97245.86;588509;241;66022;-69
2023/01/29 11:15:56;;;;;;;;;;;;;;;26.15;47.97;97243.17;588448;241;68595;-70
2023/01/29 11:18:24;;;;;;;;;;;;;;;26.16;47.45;97242.06;588524;241;62731;-69
2023/01/29 11:20:53;;;;;;;;;;;;;;;26.18;48.79;97228.30;588661;241;66512;-69
2023/01/29 11:23:31;;;;;;;;;;;;;;;26.17;48.12;97232.90;587390;241;66208;-69
2023/01/29 11:25:59;;;;;;;;;;;;;;;26.18;48.37;97228.30;587740;241;65287;-69
2023/01/29 11:28:37;;;;;;;;;;;;;;;26.18;47.19;97228.30;588184;241;68460;-69
2023/01/29 11:31:07;;;;;;;;;;;;;;;26.19;47.75;97225.33;588202;241;66191;-69
2023/01/29 11:33:35;;;;;;;;;;;;;;;26.19;47.50;97225.33;586202;241;65210;-69
2023/01/29 11:36:04;;;;;;;;;;;;;;;26.19;47.77;97217.25;588211;241;68781;-69
2023/01/29 11:38:33;;;;;;;;;;;;;;;26.19;47.13;97214.55;587642;241;66496;-69
2023/01/29 11:41:06;;;;;;;;;;;;;;;26.20;47.18;97207.27;587255;239;68768;-69
2023/01/29 11:43:33;;;;;;;;;;;;;;;26.20;48.76;97210.75;587168;241;70042;-69
2023/01/29 11:46:04;;;;;;;;;;;;;;;26.20;48.95;97199.18;587214;241;72072;-69
2023/01/29 11:48:45;;;;;;;;;;;;;;;26.20;48.22;97202.67;576812;241;68375;-69
2023/01/29 11:51:14;;;;;;;;;;;;;;;26.20;48.84;97202.67;576869;241;71935;-69
2023/01/29 11:53:43;;;;;;;;;;;;;;;26.21;47.10;97206.16;581610;241;71719;-69
2023/01/29 11:56:27;;;;;;;;;;;;;;;26.21;47.44;97206.16;588552;241;65238;-69
2023/01/29 11:58:57;;;;;;;;;;;;;;;26.20;48.72;97207.27;588129;240;47681;-68
2023/01/29 12:01:29;;;;;;;;;;;;;;;26.21;48.23;97200.77;588343;241;68332;-68
2023/01/29 12:03:58;;;;;;;;;;;;;;;26.20;47.07;97205.36;588519;241;63706;-68
2023/01/29 12:06:30;;;;;;;;;;;;;;;26.20;48.42;97202.67;588597;241;68609;-68
2023/01/29 12:08:59;;;;;;;;;;;;;;;26.20;48.48;97199.18;588231;241;68822;-68
2023/01/29 12:11:28;;;;;;;;;;;;;;;26.21;48.66;97198.07;579510;241;62927;-69
2023/01/29 12:13:57;;;;;;;;;;;;;;;26.20;47.99;97199.97;583646;241;69046;-68
2023/01/29 12:16:29;;;;;;;;;;;;;;;26.21;47.46;97203.46;582344;243;68525;-68
2023/01/29 12:18:58;;;;;;;;;;;;;;;26.21;48.26;97209.64;582459;243;65148;-68
2023/01/29 12:21:30;;;;;;;;;;;;;;;26.20;48.14;97199.97;582177;243;68710;-68
2023/01/29 12:23:59;;;;;;;;;;;;;;;26.21;47.69;97206.16;582390;243;68749;-68
2023/01/29 12:26:28;;;;;;;;;;;;;;;26.21;47.27;97209.64;582092;243;64770;-68
2023/01/29 12:28:57;;;;;;;;;;;;;;;26.20;47.26;97205.36;581500;243;66132;-68
2023/01/29 12:31:27;;;;;;;;;;;;;;;26.20;48.40;97210.75;582008;242;66477;-68
2023/01/29 12:33:57;;;;;;;;;;;;;;;26.20;47.77;97208.05;576984;243;62787;-68
2023/01/29 12:36:26;;;;;;;;;;;;;;;26.20;48.00;97207.27;581595;243;66749;-68
2023/01/29 12:38:54;;;;;;;;;;;;;;;26.21;47.41;97206.95;582235;241;68736;-68
2023/01/29 12:41:29;;;;;;;;;;;;;;;26.21;47.15;97204.25;582426;243;64761;-68
2023/01/29 12:43:58;;;;;;;;;;;;;;;26.22;48.34;97208.56;582474;243;66496;-68
2023/01/29 12:46:27;;;;;;;;;;;;;;;26.22;48.27;97205.05;582197;243;66432;-68
2023/01/29 12:48:56;;;;;;;;;;;;;;;26.22;46.97;97202.34;582489;243;65216;-68
2023/01/29 12:51:25;;;;;;;;;;;;;;;26.23;46.74;97206.66;581454;243;66495;-68
2023/01/29 12:54:03;;;;;;;;;;;;;;;26.23;48.79;97212.05;581619;243;66442;-76
2023/01/29 12:56:37;;;;;;;;;;;;;;;26.24;47.28;97210.94;581954;243;42498;-76
2023/01/29 12:59:06;;;;;;;;;;;;;;;26.24;48.09;97208.24;582075;243;67401;-76
2023/01/29 13:01:35;;;;;;;;;;;;;;;26.23;48.50;97210.14;581973;243;66538;-76
2023/01/29 13:04:05;;;;;;;;;;;;;;;26.24;47.79;97209.03;582484;243;62465;-76
2023/01/29 13:06:34;;;;;;;;;;;;;;;26.26;47.69;97206.05;582262;243;68792;-76
2023/01/29 13:09:03;;;;;;;;;;;;;;;26.26;48.04;97211.44;581565;243;68601;-76
2023/01/29 13:11:35;;;;;;;;;;;;;;;26.26;47.65;97214.92;582378;243;65735;-76
2023/01/29 13:14:04;;;;;;;;;;;;;;;26.27;48.14;97213.02;587497;241;68633;-76
2023/01/29 13:16:33;;;;;;;;;;;;;;;26.28;48.25;97217.34;588601;241;68343;-76
2023/01/29 13:19:02;;;;;;;;;;;;;;;26.28;47.67;97218.13;588468;239;64956;-76
2023/01/29 13:21:31;;;;;;;;;;;;;;;26.29;48.21;97219.71;588572;241;66506;-76
2023/01/29 13:24:06;;;;;;;;;;;;;;;26.29;49.16;97211.63;588556;241;68962;-76
2023/01/29 13:26:33;;;;;;;;;;;;;;;26.30;49.20;97218.63;588525;239;64986;-75
2023/01/29 13:29:01;;;;;;;;;;;;;;;26.31;47.88;97214.83;588540;241;68702;-76
2023/01/29 13:31:31;;;;;;;;;;;;;;;26.33;47.36;97212.64;588611;241;68352;-76
2023/01/29 13:34:09;;;;;;;;;;;;;;;26.33;48.17;97220.72;588592;241;64891;-76
2023/01/29 13:36:37;;;;;;;;;;;;;;;26.35;48.38;97223.92;588511;239;68762;-76
2023/01/29 13:39:06;;;;;;;;;;;;;;;26.35;46.95;97221.23;588571;241;68714;-76